OLC Logo
SegelflugszeneGlidingParaHangGliding ModelGliding
FAI Affiliate Member
Servicede Deutsch MoreLanguages
  • Weltweit
  • -----------
  • Afrika
  • Asien
  • Australien / Ozeanien
  • Europa
  • Nordamerika
  • Südamerika
FLG Blaubeuren (DE) 2015

Sportprofil

20 items found, displaying all items
space
Name U25 Starts Duration Gesamtpunkte OLC-Plus Speed-OLC Schnittgeschwindigkeit
Martin Söll smiley
17 86:17 7.850,95 97,43
Sebastian Schwarz smiley
15 85:36 6.862,08 84,05
Sabine Dieulin
28 136:30 6.593,25 58,84
Philipp Söll smiley
15 89:48 6.312,38 102,82
Markus Straub
15 80:59 6.036,17 83,09
Michael Heiß
19 79:32 5.416,51 78,48
Joachim Krais smiley
9 55:58 4.998,43 110,21
Karl Eugen Bauder smiley
15 61:01 4.715,56 87,12
Dirk Ströbl smiley
9 49:44 4.301,24 96,73
Heinrich Krais
10 60:35 3.976,16 87,32
Sebastian Wastl
13 57:23 3.785,89 71,61
Christian Müller
10 53:16 3.651,88 82,76
Oliver Stockinger smiley
8 37:53 2.848,16 96,24
Sebastian Bauder smiley
9 34:22 2.815,15 90,42
Jens Minard smiley
3 17:56 1.781,68 104,90
Lucas Kohn
6 22:15 1.566,48 79,20
Franz Poch smiley
3 16:59 1.536,54 82,47
Helmut Schmid smiley
6 27:29 1.464,39 68,22
Uwe Söll
2 4:46 408,22 69,74
Jonas Hafner
1 4:04 156,73 40,18
20 items found, displaying all items
space
Alle gemeldeten Flüge

    OLC-Plus
    OLC-FAI
    Speed/League
    Destination
    BHC
    DMSt

212 items found, displaying 1 - 50
Datum Punkte Name km km/h Startplatz Flugzeug Start Ende Info
2015-09-09 441,87 Heinrich Krais (DE) 433,20 79,80 Blaubeuren (DE / BW) Discus 2T/18m 09:11 15:21 info
2015-09-03 246,40 Sebastian Bauder (DE) smiley 273,78 118,81 Sinj (HR / ) Ventus 2 10:27 13:06 info
2015-09-03 241,28 Karl Eugen Bauder (DE) smiley 267,69 118,13 Sinj (HR / ) Ventus 2ax 15m 10:17 13:12 info
2015-09-02 435,70 Sebastian Bauder (DE) smiley 422,65 93,14 Sinj (HR / ) Ventus 2ax 15m 10:27 15:14 info
2015-09-02 431,76 Karl Eugen Bauder (DE) smiley 418,24 96,63 Sinj (HR / ) Ventus 2ax 15m 10:17 15:21 info
2015-09-01 327,94 Sebastian Bauder (DE) smiley 350,18 90,38 Sinj (HR / ) Ventus 2 11:33 15:37 info
2015-09-01 327,30 Karl Eugen Bauder (DE) smiley 348,23 85,51 Sinj (HR / ) Ventus 2ax 15m 11:20 15:38 info
2015-08-31 345,02 Karl Eugen Bauder (DE) smiley 374,80 84,83 Sinj (HR / ) Ventus 2ax 15m 10:34 15:21 info
2015-08-30 311,96 Michael Heiß (DE) 328,42 101,71 Blaubeuren (DE / BW) LS 7 WL 13:16 16:42 info
2015-08-30 283,50 Karl Eugen Bauder (DE) smiley 274,98 90,54 Sinj (HR / ) Ventus 2ax 15m 11:43 15:11 info
2015-08-30 240,13 Sebastian Bauder (DE) smiley 250,19 90,47 Sinj (HR / ) Ventus 2 11:54 15:01 info
2015-08-28 234,15 Karl Eugen Bauder (DE) smiley 239,76 95,53 Sinj (HR / ) Ventus 2ax 15m 11:38 14:29 info
2015-08-28 221,63 Sebastian Bauder (DE) smiley 226,04 97,77 Sinj (HR / ) Ventus 2 11:49 14:28 info
2015-08-27 446,67 Sebastian Bauder (DE) smiley 458,49 88,95 Sinj (HR / ) Ventus 2 10:21 15:43 info
2015-08-27 441,10 Karl Eugen Bauder (DE) smiley 452,48 88,18 Sinj (HR / ) Ventus 2ax 15m 10:10 15:49 info
2015-08-26 343,82 Sebastian Bauder (DE) smiley 341,10 107,38 Sinj (HR / ) Ventus 2 10:59 14:45 info
2015-08-26 339,93 Karl Eugen Bauder (DE) smiley 338,35 100,48 Sinj (HR / ) Ventus 2ax 15m 10:46 14:53 info
2015-08-26 339,79 Sebastian Schwarz (DE) smiley 358,62 86,31 Vinon Gld (FR / ) Discus 2T 10:53 17:11 info
2015-08-25 248,67 Sebastian Schwarz (DE) smiley 223,80 52,42 Vinon Gld (FR / ) Discus 2T 11:44 16:12 info
2015-08-25 222,70 Sebastian Bauder (DE) smiley 219,65 63,69 Sinj (HR / ) Ventus 2 10:11 14:20 info
2015-08-25 219,26 Karl Eugen Bauder (DE) smiley 216,15 66,87 Sinj (HR / ) Ventus 2ax 15m 10:20 14:20 info
2015-08-22 635,75 Sebastian Schwarz (DE) smiley 569,18 84,07 Vinon Gld (FR / ) Discus 2T 09:52 16:52 info
2015-08-22 527,59 Markus Straub (DE) 516,15 102,07 Blaubeuren (DE / BW) Discus bT 09:53 15:30 info
2015-08-22 512,65 Joachim Krais (DE) smiley 569,63 94,82 Blaubeuren (DE / BW) Discus 2T/18m 09:26 15:42 info
2015-08-22 497,21 Michael Heiß (DE) 495,55 84,12 Blaubeuren (DE / BW) LS 7 WL 09:29 16:03 info
2015-08-22 487,63 Martin Söll (DE) smiley 462,72 104,87 Blaubeuren (DE / BW) Discus 09:59 14:39 info
2015-08-22 458,22 Philipp Söll (DE) 502,14 100,79 Blaubeuren (DE / BW) Arcus T 09:37 14:43 info
2015-08-21 652,05 Sebastian Schwarz (DE) smiley 602,31 82,46 Vinon Gld (FR / ) Discus 2T 10:28 17:55 info
2015-08-21 491,10 Heinrich Krais (DE) 482,52 87,74 Blaubeuren (DE / BW) Discus 2T/18m 09:16 15:01 info
2015-08-21 396,95 Sebastian Wastl (DE) 390,63 75,77 Vinon Gld (FR / ) Discus bT 11:04 16:30 info
2015-08-21 381,27 Christian Müller (DE) 377,37 68,59 Vinon Gld (FR / ) Discus 2 10:54 16:50 info
2015-08-21 321,10 Lucas Kohn (DE) 315,02 72,03 Blaubeuren (DE / BW) Discus 09:23 14:05 info
2015-08-20 562,10 Sebastian Schwarz (DE) smiley 522,22 80,52 Vinon Gld (FR / ) Discus 2T 10:54 17:36 info
2015-08-20 314,97 Christian Müller (DE) 298,96 78,17 Vinon Gld (FR / ) Discus 2 12:01 16:25 info
2015-08-20 309,33 Sebastian Wastl (DE) 291,48 79,52 Vinon Gld (FR / ) Discus bT 12:09 16:20 info
2015-08-19 544,62 Sebastian Schwarz (DE) smiley 508,86 77,25 Vinon Gld (FR / ) Discus 2T 10:44 17:47 info
2015-08-19 384,35 Christian Müller (DE) 390,39 75,75 Vinon Gld (FR / ) Discus 2 11:07 16:33 info
2015-08-19 380,83 Sebastian Wastl (DE) 383,75 76,44 Vinon Gld (FR / ) Discus bT 11:14 16:26 info
2015-08-18 351,94 Heinrich Krais (DE) 387,81 72,47 Blaubeuren (DE / BW) Discus 2T/18m 09:08 14:38 info
2015-08-18 337,69 Sebastian Wastl (DE) 333,14 73,22 Vinon Gld (FR / ) Discus bT 12:20 17:03 info
2015-08-18 336,04 Christian Müller (DE) 334,99 78,25 Vinon Gld (FR / ) Discus 2 11:59 16:49 info
2015-08-18 265,27 Lucas Kohn (DE) 257,46 60,88 Blaubeuren (DE / BW) Discus 09:15 13:51 info
2015-08-18 233,71 Markus Straub (DE) 251,18 77,02 Blaubeuren (DE / BW) Arcus T 12:01 16:13 info
2015-08-17 387,53 Christian Müller (DE) 350,45 67,24 Vinon Gld (FR / ) Discus 2 11:22 16:48 info
2015-08-17 349,03 Sebastian Wastl (DE) 306,15 59,84 Vinon Gld (FR / ) Discus bT 11:37 16:48 info
2015-08-15 362,89 Philipp Söll (DE) 354,92 84,08 Blaubeuren (DE / BW) ASW 20 09:50 15:05 info
2015-08-15 171,95 Michael Heiß (DE) 181,02 70,25 Blaubeuren (DE / BW) LS 7 WL 11:54 14:42 info
2015-08-12 756,52 Martin Söll (DE) smiley 724,50 104,05 Blaubeuren (DE / BW) Discus 09:03 16:29 info
2015-08-12 730,75 Philipp Söll (DE) 718,94 103,54 Blaubeuren (DE / BW) ASW 20 09:03 16:55 info
2015-08-12 687,00 Michael Heiß (DE) 645,18 98,92 Blaubeuren (DE / BW) LS 7 WL 09:38 16:30 info
212 items found, displaying 1 - 50
208 items found, displaying 1 - 50
Datum Punkte Name km km/h Startplatz Flugzeug Start Ende Info
2015-09-09 206,16 Heinrich Krais (DE) 235,03 39,59 Blaubeuren (DE / BW) Discus 2T/18m 09:11 15:21 info
2015-09-03 21,56 Karl Eugen Bauder (DE) smiley 24,58 67,50 Sinj (HR / ) Ventus 2ax 15m 10:17 13:12 info
2015-09-03 20,83 Sebastian Bauder (DE) smiley 23,74 58,86 Sinj (HR / ) Ventus 2 10:27 13:06 info
2015-09-02 216,46 Sebastian Bauder (DE) smiley 246,77 78,26 Sinj (HR / ) Ventus 2ax 15m 10:27 15:14 info
2015-09-02 216,32 Karl Eugen Bauder (DE) smiley 246,60 78,76 Sinj (HR / ) Ventus 2ax 15m 10:17 15:21 info
2015-09-01 72,81 Karl Eugen Bauder (DE) smiley 83,01 20,35 Sinj (HR / ) Ventus 2ax 15m 11:20 15:38 info
2015-09-01 69,22 Sebastian Bauder (DE) smiley 78,91 22,74 Sinj (HR / ) Ventus 2 11:33 15:37 info
2015-08-31 54,16 Karl Eugen Bauder (DE) smiley 61,74 25,57 Sinj (HR / ) Ventus 2ax 15m 10:34 15:21 info
2015-08-30 141,02 Karl Eugen Bauder (DE) smiley 160,76 49,52 Sinj (HR / ) Ventus 2ax 15m 11:43 15:11 info
2015-08-30 68,84 Sebastian Bauder (DE) smiley 78,47 58,49 Sinj (HR / ) Ventus 2 11:54 15:01 info
2015-08-30 16,78 Michael Heiß (DE) 17,96 14,23 Blaubeuren (DE / BW) LS 7 WL 13:16 16:42 info
2015-08-28 79,47 Karl Eugen Bauder (DE) smiley 90,60 49,22 Sinj (HR / ) Ventus 2ax 15m 11:38 14:29 info
2015-08-28 77,79 Sebastian Bauder (DE) smiley 88,68 48,25 Sinj (HR / ) Ventus 2 11:49 14:28 info
2015-08-27 148,31 Sebastian Bauder (DE) smiley 169,08 80,28 Sinj (HR / ) Ventus 2 10:21 15:43 info
2015-08-27 147,28 Karl Eugen Bauder (DE) smiley 167,90 79,90 Sinj (HR / ) Ventus 2ax 15m 10:10 15:49 info
2015-08-26 148,67 Sebastian Bauder (DE) smiley 169,49 52,82 Sinj (HR / ) Ventus 2 10:59 14:45 info
2015-08-26 143,73 Karl Eugen Bauder (DE) smiley 163,86 48,43 Sinj (HR / ) Ventus 2ax 15m 10:46 14:53 info
2015-08-26 25,78 Sebastian Schwarz (DE) smiley 27,84 18,29 Vinon Gld (FR / ) Discus 2T 10:53 17:11 info
2015-08-25 138,18 Sebastian Schwarz (DE) smiley 149,23 36,56 Vinon Gld (FR / ) Discus 2T 11:44 16:12 info
2015-08-25 100,06 Sebastian Bauder (DE) smiley 114,06 42,43 Sinj (HR / ) Ventus 2 10:11 14:20 info
2015-08-25 98,83 Karl Eugen Bauder (DE) smiley 112,66 41,94 Sinj (HR / ) Ventus 2ax 15m 10:20 14:20 info
2015-08-22 362,39 Sebastian Schwarz (DE) smiley 391,38 57,37 Vinon Gld (FR / ) Discus 2T 09:52 16:52 info
2015-08-22 183,94 Martin Söll (DE) smiley 196,82 44,10 Blaubeuren (DE / BW) Discus 09:59 14:39 info
2015-08-22 150,67 Markus Straub (DE) 161,22 31,18 Blaubeuren (DE / BW) Discus bT 09:53 15:30 info
2015-08-22 113,63 Michael Heiß (DE) 121,58 20,99 Blaubeuren (DE / BW) LS 7 WL 09:29 16:03 info
2015-08-22 59,14 Philipp Söll (DE) 67,42 27,81 Blaubeuren (DE / BW) Arcus T 09:37 14:43 info
2015-08-22 43,27 Joachim Krais (DE) smiley 49,33 12,20 Blaubeuren (DE / BW) Discus 2T/18m 09:26 15:42 info
2015-08-21 314,52 Sebastian Schwarz (DE) smiley 339,68 46,65 Vinon Gld (FR / ) Discus 2T 10:28 17:55 info
2015-08-21 226,15 Heinrich Krais (DE) 257,81 63,17 Blaubeuren (DE / BW) Discus 2T/18m 09:16 15:01 info
2015-08-21 106,24 Sebastian Wastl (DE) 113,67 29,76 Vinon Gld (FR / ) Discus bT 11:04 16:30 info
2015-08-21 106,15 Christian Müller (DE) 114,64 21,10 Vinon Gld (FR / ) Discus 2 10:54 16:50 info
2015-08-21 88,94 Lucas Kohn (DE) 95,16 21,11 Blaubeuren (DE / BW) Discus 09:23 14:05 info
2015-08-20 261,86 Sebastian Schwarz (DE) smiley 282,81 53,88 Vinon Gld (FR / ) Discus 2T 10:54 17:36 info
2015-08-20 127,23 Christian Müller (DE) 137,41 34,29 Vinon Gld (FR / ) Discus 2 12:01 16:25 info
2015-08-20 123,03 Sebastian Wastl (DE) 131,64 33,85 Vinon Gld (FR / ) Discus bT 12:09 16:20 info
2015-08-19 244,80 Sebastian Schwarz (DE) smiley 264,38 39,00 Vinon Gld (FR / ) Discus 2T 10:44 17:47 info
2015-08-19 76,22 Christian Müller (DE) 82,31 15,56 Vinon Gld (FR / ) Discus 2 11:07 16:33 info
2015-08-19 73,96 Sebastian Wastl (DE) 79,14 15,58 Vinon Gld (FR / ) Discus bT 11:14 16:26 info
2015-08-18 87,81 Sebastian Wastl (DE) 93,95 23,50 Vinon Gld (FR / ) Discus bT 12:20 17:03 info
2015-08-18 86,20 Christian Müller (DE) 93,09 21,93 Vinon Gld (FR / ) Discus 2 11:59 16:49 info
2015-08-18 82,12 Lucas Kohn (DE) 87,87 22,55 Blaubeuren (DE / BW) Discus 09:15 13:51 info
2015-08-18 44,63 Markus Straub (DE) 50,88 20,75 Blaubeuren (DE / BW) Arcus T 12:01 16:13 info
2015-08-18 39,22 Heinrich Krais (DE) 44,71 16,66 Blaubeuren (DE / BW) Discus 2T/18m 09:08 14:38 info
2015-08-17 210,12 Christian Müller (DE) 226,93 43,53 Vinon Gld (FR / ) Discus 2 11:22 16:48 info
2015-08-17 209,70 Sebastian Wastl (DE) 224,38 43,87 Vinon Gld (FR / ) Discus bT 11:37 16:48 info
2015-08-15 134,11 Philipp Söll (DE) 147,52 53,93 Blaubeuren (DE / BW) ASW 20 09:50 15:05 info
2015-08-15 9,22 Michael Heiß (DE) 9,87 22,72 Blaubeuren (DE / BW) LS 7 WL 11:54 14:42 info
2015-08-12 280,07 Michael Heiß (DE) 299,68 46,53 Blaubeuren (DE / BW) LS 7 WL 09:38 16:30 info
2015-08-12 264,73 Martin Söll (DE) smiley 283,26 71,64 Blaubeuren (DE / BW) Discus 09:03 16:29 info
2015-08-12 257,35 Philipp Söll (DE) 283,08 74,39 Blaubeuren (DE / BW) ASW 20 09:03 16:55 info
208 items found, displaying 1 - 50
208 items found, displaying 1 - 50
Datum Punkte Name km km/h Startplatz Flugzeug Start Ende Info
2015-09-09 83,01 Heinrich Krais (DE) 229,30 91,72 Blaubeuren (DE / BW) Discus 2T/18m 09:11 15:21 info
2015-09-03 77,51 Sebastian Bauder (DE) smiley 214,13 85,65 Sinj (HR / ) Ventus 2 10:27 13:06 info
2015-09-03 77,04 Karl Eugen Bauder (DE) smiley 212,83 85,13 Sinj (HR / ) Ventus 2ax 15m 10:17 13:12 info
2015-09-02 87,24 Sebastian Bauder (DE) smiley 241,00 96,40 Sinj (HR / ) Ventus 2ax 15m 10:27 15:14 info
2015-09-02 86,45 Karl Eugen Bauder (DE) smiley 238,81 95,53 Sinj (HR / ) Ventus 2ax 15m 10:17 15:21 info
2015-09-01 84,91 Sebastian Bauder (DE) smiley 234,57 93,83 Sinj (HR / ) Ventus 2 11:33 15:37 info
2015-09-01 83,01 Karl Eugen Bauder (DE) smiley 229,32 91,73 Sinj (HR / ) Ventus 2ax 15m 11:20 15:38 info
2015-08-31 79,94 Karl Eugen Bauder (DE) smiley 220,84 88,34 Sinj (HR / ) Ventus 2ax 15m 10:34 15:21 info
2015-08-30 98,10 Michael Heiß (DE) 258,12 103,25 Blaubeuren (DE / BW) LS 7 WL 13:16 16:42 info
2015-08-30 78,29 Sebastian Bauder (DE) smiley 216,27 86,51 Sinj (HR / ) Ventus 2 11:54 15:01 info
2015-08-30 71,07 Karl Eugen Bauder (DE) smiley 196,33 78,53 Sinj (HR / ) Ventus 2ax 15m 11:43 15:11 info
2015-08-28 76,25 Sebastian Bauder (DE) smiley 210,65 84,26 Sinj (HR / ) Ventus 2 11:49 14:28 info
2015-08-28 76,06 Karl Eugen Bauder (DE) smiley 210,13 84,05 Sinj (HR / ) Ventus 2ax 15m 11:38 14:29 info
2015-08-27 82,70 Sebastian Bauder (DE) smiley 228,45 91,38 Sinj (HR / ) Ventus 2 10:21 15:43 info
2015-08-27 82,19 Karl Eugen Bauder (DE) smiley 227,04 90,81 Sinj (HR / ) Ventus 2ax 15m 10:10 15:49 info
2015-08-26 92,13 Sebastian Bauder (DE) smiley 254,51 101,80 Sinj (HR / ) Ventus 2 10:59 14:45 info
2015-08-26 91,97 Karl Eugen Bauder (DE) smiley 254,05 101,62 Sinj (HR / ) Ventus 2ax 15m 10:46 14:53 info
2015-08-26 1,30 Sebastian Schwarz (DE) smiley 3,46 1,38 Vinon Gld (FR / ) Discus 2T 10:53 17:11 info
2015-08-25 61,20 Sebastian Bauder (DE) smiley 169,08 67,63 Sinj (HR / ) Ventus 2 10:11 14:20 info
2015-08-25 58,84 Karl Eugen Bauder (DE) smiley 162,55 65,02 Sinj (HR / ) Ventus 2ax 15m 10:20 14:20 info
2015-08-25 48,94 Sebastian Schwarz (DE) smiley 129,69 51,88 Vinon Gld (FR / ) Discus 2T 11:44 16:12 info
2015-08-22 117,93 Philipp Söll (DE) 325,77 130,31 Blaubeuren (DE / BW) Arcus T 09:37 14:43 info
2015-08-22 117,47 Martin Söll (DE) smiley 309,10 123,64 Blaubeuren (DE / BW) Discus 09:59 14:39 info
2015-08-22 112,65 Joachim Krais (DE) smiley 311,19 124,47 Blaubeuren (DE / BW) Discus 2T/18m 09:26 15:42 info
2015-08-22 112,27 Markus Straub (DE) 295,40 118,16 Blaubeuren (DE / BW) Discus bT 09:53 15:30 info
2015-08-22 102,99 Sebastian Schwarz (DE) smiley 272,92 109,17 Vinon Gld (FR / ) Discus 2T 09:52 16:52 info
2015-08-22 97,66 Michael Heiß (DE) 256,97 102,79 Blaubeuren (DE / BW) LS 7 WL 09:29 16:03 info
2015-08-21 94,31 Sebastian Schwarz (DE) smiley 249,91 99,96 Vinon Gld (FR / ) Discus 2T 10:28 17:55 info
2015-08-21 88,70 Heinrich Krais (DE) 245,03 98,01 Blaubeuren (DE / BW) Discus 2T/18m 09:16 15:01 info
2015-08-21 83,55 Lucas Kohn (DE) 219,84 87,93 Blaubeuren (DE / BW) Discus 09:23 14:05 info
2015-08-21 77,70 Christian Müller (DE) 205,91 82,36 Vinon Gld (FR / ) Discus 2 10:54 16:50 info
2015-08-21 76,54 Sebastian Wastl (DE) 201,40 80,56 Vinon Gld (FR / ) Discus bT 11:04 16:30 info
2015-08-20 76,13 Sebastian Schwarz (DE) smiley 201,75 80,70 Vinon Gld (FR / ) Discus 2T 10:54 17:36 info
2015-08-20 68,09 Sebastian Wastl (DE) 179,17 71,67 Vinon Gld (FR / ) Discus bT 12:09 16:20 info
2015-08-20 67,89 Christian Müller (DE) 179,90 71,96 Vinon Gld (FR / ) Discus 2 12:01 16:25 info
2015-08-19 92,16 Sebastian Schwarz (DE) smiley 244,23 97,69 Vinon Gld (FR / ) Discus 2T 10:44 17:47 info
2015-08-19 74,02 Christian Müller (DE) 196,14 78,46 Vinon Gld (FR / ) Discus 2 11:07 16:33 info
2015-08-19 73,02 Sebastian Wastl (DE) 192,12 76,85 Vinon Gld (FR / ) Discus bT 11:14 16:26 info
2015-08-18 73,33 Markus Straub (DE) 202,57 81,03 Blaubeuren (DE / BW) Arcus T 12:01 16:13 info
2015-08-18 69,76 Sebastian Wastl (DE) 183,56 73,42 Vinon Gld (FR / ) Discus bT 12:20 17:03 info
2015-08-18 68,52 Lucas Kohn (DE) 180,30 72,12 Blaubeuren (DE / BW) Discus 09:15 13:51 info
2015-08-18 67,59 Heinrich Krais (DE) 186,73 74,69 Blaubeuren (DE / BW) Discus 2T/18m 09:08 14:38 info
2015-08-18 66,50 Christian Müller (DE) 176,22 70,49 Vinon Gld (FR / ) Discus 2 11:59 16:49 info
2015-08-17 81,61 Christian Müller (DE) 216,27 86,51 Vinon Gld (FR / ) Discus 2 11:22 16:48 info
2015-08-17 70,44 Sebastian Wastl (DE) 185,34 74,13 Vinon Gld (FR / ) Discus bT 11:37 16:48 info
2015-08-15 88,75 Philipp Söll (DE) 238,51 95,41 Blaubeuren (DE / BW) ASW 20 09:50 15:05 info
2015-08-15 66,25 Michael Heiß (DE) 174,32 69,73 Blaubeuren (DE / BW) LS 7 WL 11:54 14:42 info
2015-08-12 107,97 Martin Söll (DE) smiley 284,09 113,64 Blaubeuren (DE / BW) Discus 09:03 16:29 info
2015-08-12 104,45 Philipp Söll (DE) 280,70 112,28 Blaubeuren (DE / BW) ASW 20 09:03 16:55 info
2015-08-12 97,71 Michael Heiß (DE) 257,11 102,84 Blaubeuren (DE / BW) LS 7 WL 09:38 16:30 info
208 items found, displaying 1 - 50
208 items found, displaying 1 - 50
Datum Punkte Name km km/h Startplatz Flugzeug Start Ende Info
2015-09-09 400,00 Heinrich Krais (DE) 433,20 79,80 Blaubeuren (DE / BW) Discus 2T/18m 09:11 15:21 info
2015-09-03 202,24 Sebastian Bauder (DE) smiley 273,78 118,81 Sinj (HR / ) Ventus 2 10:27 13:06 info
2015-09-03 197,74 Karl Eugen Bauder (DE) smiley 267,69 118,13 Sinj (HR / ) Ventus 2ax 15m 10:17 13:12 info
2015-09-02 312,21 Sebastian Bauder (DE) smiley 422,65 93,14 Sinj (HR / ) Ventus 2ax 15m 10:27 15:14 info
2015-09-02 308,95 Karl Eugen Bauder (DE) smiley 418,24 96,63 Sinj (HR / ) Ventus 2ax 15m 10:17 15:21 info
2015-09-01 258,67 Sebastian Bauder (DE) smiley 350,18 90,38 Sinj (HR / ) Ventus 2 11:33 15:37 info
2015-09-01 257,23 Karl Eugen Bauder (DE) smiley 348,23 85,51 Sinj (HR / ) Ventus 2ax 15m 11:20 15:38 info
2015-08-31 276,86 Karl Eugen Bauder (DE) smiley 374,80 84,83 Sinj (HR / ) Ventus 2ax 15m 10:34 15:21 info
2015-08-30 344,23 Michael Heiß (DE) 328,42 101,71 Blaubeuren (DE / BW) LS 7 WL 13:16 16:42 info
2015-08-30 203,12 Karl Eugen Bauder (DE) smiley 274,98 90,54 Sinj (HR / ) Ventus 2ax 15m 11:43 15:11 info
2015-08-30 184,81 Sebastian Bauder (DE) smiley 250,19 90,47 Sinj (HR / ) Ventus 2 11:54 15:01 info
2015-08-28 177,11 Karl Eugen Bauder (DE) smiley 239,76 95,53 Sinj (HR / ) Ventus 2ax 15m 11:38 14:29 info
2015-08-28 166,97 Sebastian Bauder (DE) smiley 226,04 97,77 Sinj (HR / ) Ventus 2 11:49 14:28 info
2015-08-27 338,68 Sebastian Bauder (DE) smiley 458,49 88,95 Sinj (HR / ) Ventus 2 10:21 15:43 info
2015-08-27 334,24 Karl Eugen Bauder (DE) smiley 452,48 88,18 Sinj (HR / ) Ventus 2ax 15m 10:10 15:49 info
2015-08-26 295,16 Sebastian Schwarz (DE) smiley 358,62 86,31 Vinon Gld (FR / ) Discus 2T 10:53 17:11 info
2015-08-26 251,97 Sebastian Bauder (DE) smiley 341,10 107,38 Sinj (HR / ) Ventus 2 10:59 14:45 info
2015-08-26 249,94 Karl Eugen Bauder (DE) smiley 338,35 100,48 Sinj (HR / ) Ventus 2ax 15m 10:46 14:53 info
2015-08-25 184,20 Sebastian Schwarz (DE) smiley 223,80 52,42 Vinon Gld (FR / ) Discus 2T 11:44 16:12 info
2015-08-25 162,25 Sebastian Bauder (DE) smiley 219,65 63,69 Sinj (HR / ) Ventus 2 10:11 14:20 info
2015-08-25 159,67 Karl Eugen Bauder (DE) smiley 216,15 66,87 Sinj (HR / ) Ventus 2ax 15m 10:20 14:20 info
2015-08-22 631,16 Markus Straub (DE) 516,15 102,07 Blaubeuren (DE / BW) Discus bT 09:53 15:30 info
2015-08-22 519,40 Michael Heiß (DE) 495,55 84,12 Blaubeuren (DE / BW) LS 7 WL 09:29 16:03 info
2015-08-22 484,99 Martin Söll (DE) smiley 462,72 104,87 Blaubeuren (DE / BW) Discus 09:59 14:39 info
2015-08-22 468,46 Sebastian Schwarz (DE) smiley 569,18 84,07 Vinon Gld (FR / ) Discus 2T 09:52 16:52 info
2015-08-22 463,66 Philipp Söll (DE) 502,14 100,79 Blaubeuren (DE / BW) Arcus T 09:37 14:43 info
2015-08-22 438,31 Joachim Krais (DE) smiley 569,63 94,82 Blaubeuren (DE / BW) Discus 2T/18m 09:26 15:42 info
2015-08-21 495,73 Sebastian Schwarz (DE) smiley 602,31 82,46 Vinon Gld (FR / ) Discus 2T 10:28 17:55 info
2015-08-21 445,54 Heinrich Krais (DE) 482,52 87,74 Blaubeuren (DE / BW) Discus 2T/18m 09:16 15:01 info
2015-08-21 385,21 Lucas Kohn (DE) 315,02 72,03 Blaubeuren (DE / BW) Discus 09:23 14:05 info
2015-08-21 382,13 Sebastian Wastl (DE) 390,63 75,77 Vinon Gld (FR / ) Discus bT 11:04 16:30 info
2015-08-21 310,59 Christian Müller (DE) 377,37 68,59 Vinon Gld (FR / ) Discus 2 10:54 16:50 info
2015-08-20 429,81 Sebastian Schwarz (DE) smiley 522,22 80,52 Vinon Gld (FR / ) Discus 2T 10:54 17:36 info
2015-08-20 285,14 Sebastian Wastl (DE) 291,48 79,52 Vinon Gld (FR / ) Discus bT 12:09 16:20 info
2015-08-20 246,06 Christian Müller (DE) 298,96 78,17 Vinon Gld (FR / ) Discus 2 12:01 16:25 info
2015-08-19 418,81 Sebastian Schwarz (DE) smiley 508,86 77,25 Vinon Gld (FR / ) Discus 2T 10:44 17:47 info
2015-08-19 375,40 Sebastian Wastl (DE) 383,75 76,44 Vinon Gld (FR / ) Discus bT 11:14 16:26 info
2015-08-19 321,31 Christian Müller (DE) 390,39 75,75 Vinon Gld (FR / ) Discus 2 11:07 16:33 info
2015-08-18 358,09 Heinrich Krais (DE) 387,81 72,47 Blaubeuren (DE / BW) Discus 2T/18m 09:08 14:38 info
2015-08-18 325,89 Sebastian Wastl (DE) 333,14 73,22 Vinon Gld (FR / ) Discus bT 12:20 17:03 info
2015-08-18 314,83 Lucas Kohn (DE) 257,46 60,88 Blaubeuren (DE / BW) Discus 09:15 13:51 info
2015-08-18 275,71 Christian Müller (DE) 334,99 78,25 Vinon Gld (FR / ) Discus 2 11:59 16:49 info
2015-08-18 270,58 Markus Straub (DE) 251,18 77,02 Blaubeuren (DE / BW) Arcus T 12:01 16:13 info
2015-08-17 299,49 Sebastian Wastl (DE) 306,15 59,84 Vinon Gld (FR / ) Discus bT 11:37 16:48 info
2015-08-17 288,44 Christian Müller (DE) 350,45 67,24 Vinon Gld (FR / ) Discus 2 11:22 16:48 info
2015-08-15 351,99 Philipp Söll (DE) 354,92 84,08 Blaubeuren (DE / BW) ASW 20 09:50 15:05 info
2015-08-15 189,73 Michael Heiß (DE) 181,02 70,25 Blaubeuren (DE / BW) LS 7 WL 11:54 14:42 info
2015-08-12 759,37 Martin Söll (DE) smiley 724,50 104,05 Blaubeuren (DE / BW) Discus 09:03 16:29 info
2015-08-12 713,00 Philipp Söll (DE) 718,94 103,54 Blaubeuren (DE / BW) ASW 20 09:03 16:55 info
2015-08-12 676,23 Michael Heiß (DE) 645,18 98,92 Blaubeuren (DE / BW) LS 7 WL 09:38 16:30 info
208 items found, displaying 1 - 50
3 items found, displaying all items
space
Datum Punkte Name km km/h Startplatz Flugzeug Start Ende Info
2015-05-10 721,41 Franz Poch (DE) smiley 599,32 79,69 Blaubeuren (DE / BW) Discus 2T 08:52 16:35 info
2015-05-10 54,62 Dirk Ströbl (DE) smiley 54,62 11,80 Rheinstetten (DE / BW) Std. Cirrus WL 09:48 14:36 info
2015-04-18 564,90 Philipp Söll (DE) 621,39 79,72 Blaubeuren (DE / BW) ASW 20 07:46 17:26 info
3 items found, displaying all items
space
200 items found, displaying 1 - 50
Datum Punkte Name km km/h Startplatz Flugzeug Start Ende Info
2015-09-27 154,00 Michael Heiß (DE) 175,56 84,77 Blaubeuren (DE / BW) Arcus T 12:38 14:54 info
2015-09-09 305,21 Heinrich Krais (DE) 347,95 64,09 Blaubeuren (DE / BW) Discus 2T/18m 09:11 15:21 info
2015-09-03 204,53 Sebastian Bauder (DE) smiley 233,16 101,18 Sinj (HR / ) Ventus 2 10:27 13:06 info
2015-09-03 200,31 Karl Eugen Bauder (DE) smiley 228,35 100,77 Sinj (HR / ) Ventus 2ax 15m 10:17 13:12 info
2015-09-02 318,35 Sebastian Bauder (DE) smiley 362,92 83,90 Sinj (HR / ) Ventus 2ax 15m 10:27 15:14 info
2015-09-02 315,68 Karl Eugen Bauder (DE) smiley 359,88 83,15 Sinj (HR / ) Ventus 2ax 15m 10:17 15:21 info
2015-09-01 296,94 Sebastian Bauder (DE) smiley 338,51 88,93 Sinj (HR / ) Ventus 2 11:33 15:37 info
2015-09-01 290,68 Karl Eugen Bauder (DE) smiley 331,38 90,99 Sinj (HR / ) Ventus 2ax 15m 11:20 15:38 info
2015-08-31 290,34 Karl Eugen Bauder (DE) smiley 330,99 90,25 Sinj (HR / ) Ventus 2ax 15m 10:34 15:21 info
2015-08-30 301,07 Michael Heiß (DE) 322,14 99,84 Blaubeuren (DE / BW) LS 7 WL 13:16 16:42 info
2015-08-30 224,71 Karl Eugen Bauder (DE) smiley 256,17 89,39 Sinj (HR / ) Ventus 2ax 15m 11:43 15:11 info
2015-08-28 192,31 Karl Eugen Bauder (DE) smiley 219,23 101,43 Sinj (HR / ) Ventus 2ax 15m 11:38 14:29 info
2015-08-27 332,30 Karl Eugen Bauder (DE) smiley 378,82 89,83 Sinj (HR / ) Ventus 2ax 15m 10:10 15:49 info
2015-08-26 300,84 Sebastian Schwarz (DE) smiley 324,91 78,20 Vinon Gld (FR / ) Discus 2T 10:53 17:11 info
2015-08-26 228,46 Sebastian Bauder (DE) smiley 260,45 117,14 Sinj (HR / ) Ventus 2 10:59 14:45 info
2015-08-26 225,57 Karl Eugen Bauder (DE) smiley 257,15 114,29 Sinj (HR / ) Ventus 2ax 15m 10:46 14:53 info
2015-08-25 193,45 Sebastian Schwarz (DE) smiley 149,23 36,56 Vinon Gld (FR / ) Discus 2T 11:44 16:12 info
2015-08-25 142,59 Karl Eugen Bauder (DE) smiley 162,55 68,76 Sinj (HR / ) Ventus 2ax 15m 10:20 14:20 info
2015-08-22 507,35 Sebastian Schwarz (DE) smiley 391,38 57,37 Vinon Gld (FR / ) Discus 2T 09:52 16:52 info
2015-08-22 491,65 Joachim Krais (DE) smiley 560,48 93,29 Blaubeuren (DE / BW) Discus 2T/18m 09:26 15:42 info
2015-08-22 445,54 Michael Heiß (DE) 476,73 80,92 Blaubeuren (DE / BW) LS 7 WL 09:29 16:03 info
2015-08-22 439,30 Markus Straub (DE) 470,05 97,83 Blaubeuren (DE / BW) Discus bT 09:53 15:30 info
2015-08-22 416,96 Martin Söll (DE) smiley 446,15 101,12 Blaubeuren (DE / BW) Discus 09:59 14:39 info
2015-08-22 370,83 Philipp Söll (DE) 422,75 96,19 Blaubeuren (DE / BW) Arcus T 09:37 14:43 info
2015-08-21 465,93 Sebastian Schwarz (DE) smiley 503,20 68,88 Vinon Gld (FR / ) Discus 2T 10:28 17:55 info
2015-08-21 411,94 Heinrich Krais (DE) 469,62 85,39 Blaubeuren (DE / BW) Discus 2T/18m 09:16 15:01 info
2015-08-21 333,73 Sebastian Wastl (DE) 357,09 71,45 Vinon Gld (FR / ) Discus bT 11:04 16:30 info
2015-08-21 323,85 Christian Müller (DE) 349,76 63,57 Vinon Gld (FR / ) Discus 2 10:54 16:50 info
2015-08-20 404,72 Sebastian Schwarz (DE) smiley 437,10 67,40 Vinon Gld (FR / ) Discus 2T 10:54 17:36 info
2015-08-20 255,93 Christian Müller (DE) 276,40 73,53 Vinon Gld (FR / ) Discus 2 12:01 16:25 info
2015-08-20 251,48 Sebastian Wastl (DE) 269,08 72,71 Vinon Gld (FR / ) Discus bT 12:09 16:20 info
2015-08-19 452,67 Sebastian Schwarz (DE) smiley 488,88 75,36 Vinon Gld (FR / ) Discus 2T 10:44 17:47 info
2015-08-19 334,04 Christian Müller (DE) 360,76 70,81 Vinon Gld (FR / ) Discus 2 11:07 16:33 info
2015-08-19 332,78 Sebastian Wastl (DE) 356,08 70,57 Vinon Gld (FR / ) Discus bT 11:14 16:26 info
2015-08-18 306,91 Heinrich Krais (DE) 349,88 65,38 Blaubeuren (DE / BW) Discus 2T/18m 09:08 14:38 info
2015-08-18 290,68 Sebastian Wastl (DE) 311,03 68,44 Vinon Gld (FR / ) Discus bT 12:20 17:03 info
2015-08-18 289,25 Christian Müller (DE) 312,39 72,97 Vinon Gld (FR / ) Discus 2 11:59 16:49 info
2015-08-18 209,03 Markus Straub (DE) 238,30 73,10 Blaubeuren (DE / BW) Arcus T 12:01 16:13 info
2015-08-17 294,16 Christian Müller (DE) 226,93 43,53 Vinon Gld (FR / ) Discus 2 11:22 16:48 info
2015-08-17 293,59 Sebastian Wastl (DE) 224,38 43,87 Vinon Gld (FR / ) Discus bT 11:37 16:48 info
2015-08-15 243,47 Philipp Söll (DE) 267,81 84,31 Blaubeuren (DE / BW) ASW 20 09:50 15:05 info
2015-08-15 162,92 Michael Heiß (DE) 174,32 70,89 Blaubeuren (DE / BW) LS 7 WL 11:54 14:42 info
2015-08-12 571,85 Martin Söll (DE) smiley 611,88 87,91 Blaubeuren (DE / BW) Discus 09:03 16:29 info
2015-08-12 552,24 Philipp Söll (DE) 607,47 87,98 Blaubeuren (DE / BW) ASW 20 09:03 16:55 info
2015-08-12 472,46 Michael Heiß (DE) 505,54 81,80 Blaubeuren (DE / BW) LS 7 WL 09:38 16:30 info
2015-08-09 271,68 Uwe Söll (DE) 309,72 116,68 Blaubeuren (DE / BW) Arcus T 12:06 15:08 info
2015-08-08 315,46 Markus Straub (DE) 241,10 57,22 Blaubeuren (DE / BW) Discus bT 11:02 15:45 info
2015-08-08 313,04 Michael Heiß (DE) 334,96 66,89 Blaubeuren (DE / BW) LS 7 WL 10:21 15:59 info
2015-08-08 307,72 Philipp Söll (DE) 338,49 82,85 Blaubeuren (DE / BW) ASW 20 09:42 16:00 info
2015-08-08 303,40 Martin Söll (DE) smiley 231,88 53,35 Blaubeuren (DE / BW) Discus 10:54 15:34 info
200 items found, displaying 1 - 50
Quick-Links
directclaim Service
Letzte News
23. September

Erstflug der Mü 31

OLC Liga-Finale 2017
7. Oktober um 13.00 Uhr
Poppenhausen
Jubel-Event für die Sieger
Platin Sponsoren
Platin SponsorenPeter H. BraaschBürklinaerokurier
Gold Sponsoren
Gold SponsorenAlexander SchleicherSCHEMPP-HIRTH Flugzeugbau GmbHFLARMTQ AvionicsCobra TrailernavITerTopMeteoLXNAVbinderHPHLANGE Aviation GmbHJonker SailplanesAir AvionicsBitterwasserM+D FlugzeugbauFliegerstromDeutscher WetterdienstILECDG FlugzeugbauOLC Sponsor werden?
Silber Sponsoren
Silber SponsorenSiebertWINTER InstrumentsClouddancersSegelflugschule WasserkuppeRent a GliderIMI GlidingMilvusTost
Bronze Sponsoren
Bronze SponsorenFLIGHT TEAMOLC Sponsor werden?
OLC Partner
OLC PartnerSegelflugverband der SchweizSoaring Association of CanadaSoaring Society of AmericaGliding Federation of AustraliaKoninklijke Nederlandse Vereniging voor Luchtvaartconono GmbHFAIBarronHiltonCupDEUTSCHER AERO-CLUB E.V.OLC Sponsor werden?